Time;durP1;ratioP1;P1;durP2;ratioP2;P2;SDS_P1;SDS_P2;PMS_P1;PMS_P2;Temp;Humidity;BMP_temperature;BMP_pressure;BME280_temperature;BME280_humidity;BME280_pressure;Samples;Min_cycle;Max_cycle;Signal;HPM_P1;HPM_P2
2024/01/12 07:53:44;;;;;;;;;;;;;;;-0.98;50.51;100881.93;106798;1257;61002;-85
2024/01/12 07:56:24;;;;;;;;;;;;;;;-0.97;50.92;100878.73;106180;1255;60524;-84
2024/01/12 07:59:03;;;;;;;;;;;;;;;-1.01;51.41;100880.14;106298;1257;73883;-84
2024/01/12 08:01:45;;;;;;;;;;;;;;;-0.94;51.05;100880.83;106311;1257;66826;-85
2024/01/12 08:04:25;;;;;;;;;;;;;;;-0.90;50.72;100884.60;106347;1254;73679;-86
2024/01/12 08:07:06;;;;;;;;;;;;;;;-0.89;49.90;100882.73;106345;1253;62375;-86
2024/01/12 08:09:46;;;;;;;;;;;;;;;-0.91;49.86;100886.50;106514;1253;60784;-87
2024/01/12 08:12:26;;;;;;;;;;;;;;;-0.88;49.39;100892.76;106374;1259;73801;-86
2024/01/12 08:15:08;;;;;;;;;;;;;;;-0.88;48.18;100898.89;106491;1253;71152;-86
2024/01/12 08:17:49;;;;;;;;;;;;;;;-0.88;49.60;100900.46;106244;1256;72588;-86
2024/01/12 08:20:29;;;;;;;;;;;;;;;-0.81;49.13;100904.70;106315;1253;60878;-87
2024/01/12 08:23:09;;;;;;;;;;;;;;;-0.73;49.31;100903.61;106339;1258;61159;-86
2024/01/12 08:25:49;;;;;;;;;;;;;;;-0.59;50.27;100916.13;106282;1253;74939;-86
2024/01/12 08:28:28;;;;;;;;;;;;;;;-0.44;50.17;100921.96;106306;1257;67564;-86
2024/01/12 08:31:08;;;;;;;;;;;;;;;-0.36;50.00;100927.90;106323;1257;74867;-81
2024/01/12 08:33:49;;;;;;;;;;;;;;;-0.32;49.43;100936.85;106218;1254;60559;-80
2024/01/12 08:36:29;;;;;;;;;;;;;;;-0.43;48.03;100936.88;106334;1254;61261;-80
2024/01/12 08:39:09;;;;;;;;;;;;;;;-0.47;47.79;100938.23;106410;1258;73829;-80
2024/01/12 08:41:49;;;;;;;;;;;;;;;-0.45;47.64;100935.71;106177;1256;67104;-81
2024/01/12 08:44:28;;;;;;;;;;;;;;;-0.41;48.72;100936.48;106133;1261;72338;-80
2024/01/12 08:47:08;;;;;;;;;;;;;;;-0.54;49.13;100933.59;106303;1253;61905;-80
2024/01/12 08:49:48;;;;;;;;;;;;;;;-0.50;50.02;100932.38;106242;1253;60736;-80
2024/01/12 08:52:27;;;;;;;;;;;;;;;-0.55;49.55;100934.61;106236;1253;73977;-81
2024/01/12 08:55:09;;;;;;;;;;;;;;;-0.72;49.92;100932.84;106406;1253;71220;-80
2024/01/12 08:57:52;;;;;;;;;;;;;;;-0.49;49.62;100936.11;106254;1254;73854;-81
2024/01/12 09:00:32;;;;;;;;;;;;;;;-0.40;49.04;100933.67;106190;1259;60316;-81
2024/01/12 09:03:12;;;;;;;;;;;;;;;-0.40;48.14;100929.30;106148;1259;60428;-80
2024/01/12 09:05:51;;;;;;;;;;;;;;;-0.43;47.67;100928.50;106183;1253;72624;-80
2024/01/12 09:08:31;;;;;;;;;;;;;;;-0.32;49.41;100930.31;106111;1253;69716;-81
2024/01/12 09:11:11;;;;;;;;;;;;;;;-0.15;50.08;100936.67;106213;1253;71533;-82
2024/01/12 09:13:51;;;;;;;;;;;;;;;0.03;49.90;100938.88;106508;1258;61664;-80
2024/01/12 09:16:31;;;;;;;;;;;;;;;0.11;46.68;100940.86;106225;1256;60444;-81
2024/01/12 09:19:10;;;;;;;;;;;;;;;0.11;45.39;100934.42;106081;1256;75676;-81
2024/01/12 09:21:50;;;;;;;;;;;;;;;-0.03;44.74;100938.94;106244;1259;69758;-81
2024/01/12 09:24:30;;;;;;;;;;;;;;;-0.07;43.43;100937.96;106428;1253;73792;-81
2024/01/12 09:27:11;;;;;;;;;;;;;;;-0.17;44.06;100940.13;106611;1258;62799;-81
2024/01/12 09:29:51;;;;;;;;;;;;;;;0.10;46.33;100935.41;106458;1255;60438;-82
2024/01/12 09:32:31;;;;;;;;;;;;;;;0.34;47.20;100937.44;105894;1262;72679;-82
2024/01/12 09:35:13;;;;;;;;;;;;;;;0.50;47.68;100937.99;106352;1257;67556;-81
2024/01/12 09:37:53;;;;;;;;;;;;;;;0.51;47.89;100940.93;106429;1253;73789;-81
2024/01/12 09:40:33;;;;;;;;;;;;;;;0.59;47.03;100938.16;106116;1258;60826;-82
2024/01/12 09:43:15;;;;;;;;;;;;;;;0.51;47.52;100941.77;106217;1254;60456;-81
2024/01/12 09:45:55;;;;;;;;;;;;;;;0.58;46.61;100941.71;106049;1255;72128;-82
2024/01/12 09:48:36;;;;;;;;;;;;;;;0.51;46.37;100941.30;106403;1256;70512;-80
2024/01/12 09:51:16;;;;;;;;;;;;;;;0.47;47.43;100937.64;106474;1256;71523;-82
2024/01/12 09:53:56;;;;;;;;;;;;;;;0.41;47.22;100936.39;106243;1257;60856;-80
2024/01/12 09:56:36;;;;;;;;;;;;;;;0.39;47.88;100934.56;106288;1254;60531;-81
2024/01/12 09:59:26;;;;;;;;;;;;;;;0.47;46.64;100930.70;106282;1259;73980;-81
2024/01/12 10:02:08;;;;;;;;;;;;;;;0.43;45.99;100926.30;106433;1259;69615;-81
2024/01/12 10:04:48;;;;;;;;;;;;;;;0.57;46.88;100925.32;106409;1253;73127;-81
2024/01/12 10:07:27;;;;;;;;;;;;;;;0.68;45.30;100926.10;106402;1256;60544;-80
2024/01/12 10:10:08;;;;;;;;;;;;;;;0.62;43.17;100922.43;106299;1254;60481;-81
2024/01/12 10:12:47;;;;;;;;;;;;;;;0.62;44.09;100924.95;106331;1254;72706;-82
2024/01/12 10:15:29;;;;;;;;;;;;;;;0.57;43.91;100926.48;106300;1253;69919;-81
2024/01/12 10:18:09;;;;;;;;;;;;;;;0.57;43.91;100930.77;106317;1256;72651;-82
2024/01/12 10:20:49;;;;;;;;;;;;;;;0.66;46.36;100934.98;106334;1261;60319;-82
2024/01/12 10:23:29;;;;;;;;;;;;;;;0.89;47.22;100937.86;106290;1253;60676;-82
2024/01/12 10:26:09;;;;;;;;;;;;;;;1.10;46.02;100933.55;106332;1257;74921;-82
2024/01/12 10:28:50;;;;;;;;;;;;;;;1.25;46.53;100937.13;106175;1254;69997;-81
2024/01/12 10:31:30;;;;;;;;;;;;;;;1.37;44.94;100938.41;106244;1254;72112;-81
2024/01/12 10:34:12;;;;;;;;;;;;;;;1.38;45.34;100932.80;106276;1257;60419;-80
2024/01/12 10:36:56;;;;;;;;;;;;;;;1.22;44.40;100939.91;106233;1255;60509;-80
2024/01/12 10:39:38;;;;;;;;;;;;;;;0.97;43.83;100936.02;106097;1262;75161;-80
2024/01/12 10:42:20;;;;;;;;;;;;;;;1.04;44.17;100934.98;106185;1261;69716;-81
2024/01/12 10:45:00;;;;;;;;;;;;;;;0.98;43.98;100935.73;106375;1253;75125;-81
2024/01/12 10:47:40;;;;;;;;;;;;;;;0.98;44.65;100936.23;106305;1259;61998;-81
2024/01/12 10:50:21;;;;;;;;;;;;;;;1.11;46.77;100936.33;106178;1254;60462;-81
2024/01/12 10:53:12;;;;;;;;;;;;;;;1.34;46.80;100937.64;106440;1254;76144;-82
2024/01/12 10:55:58;;;;;;;;;;;;;;;1.37;45.84;100935.77;106240;1259;67363;-82
2024/01/12 10:58:38;;;;;;;;;;;;;;;1.46;46.12;100935.60;106147;1259;72773;-82
2024/01/12 11:01:18;;;;;;;;;;;;;;;1.53;45.41;100932.16;106328;1259;60394;-83
2024/01/12 11:03:58;;;;;;;;;;;;;;;1.54;46.11;100929.35;106219;1260;60435;-82
2024/01/12 11:06:38;;;;;;;;;;;;;;;1.65;46.72;100931.25;106279;1259;74225;-82
2024/01/12 11:09:18;;;;;;;;;;;;;;;1.46;42.89;100938.05;106445;1259;70230;-83
2024/01/12 11:12:03;;;;;;;;;;;;;;;1.31;44.00;100932.45;106212;1253;72406;-82
2024/01/12 11:14:44;;;;;;;;;;;;;;;0.96;41.78;100930.42;106190;1253;63794;-82
2024/01/12 11:17:24;;;;;;;;;;;;;;;0.76;43.61;100932.79;106108;1260;60626;-82
2024/01/12 11:20:17;;;;;;;;;;;;;;;0.68;43.35;100931.48;106170;1260;73865;-82
2024/01/12 11:22:58;;;;;;;;;;;;;;;0.49;42.58;100931.29;106244;1254;71077;-82
2024/01/12 11:25:38;;;;;;;;;;;;;;;0.51;43.17;100936.77;106404;1258;73736;-81
2024/01/12 11:28:19;;;;;;;;;;;;;;;0.53;42.95;100941.90;106302;1256;60504;-81
2024/01/12 11:30:59;;;;;;;;;;;;;;;0.62;43.01;100939.23;106179;1253;61888;-81
2024/01/12 11:33:49;;;;;;;;;;;;;;;0.73;44.14;100938.80;106451;1259;76164;-81
2024/01/12 11:36:33;;;;;;;;;;;;;;;0.84;43.74;100941.17;106223;1257;70009;-81
2024/01/12 11:39:16;;;;;;;;;;;;;;;0.91;44.01;100937.38;106261;1253;72025;-81
2024/01/12 11:42:00;;;;;;;;;;;;;;;0.85;42.60;100938.84;106283;1259;60474;-82
2024/01/12 11:44:40;;;;;;;;;;;;;;;0.87;43.84;100937.57;106376;1253;60618;-83
2024/01/12 11:47:20;;;;;;;;;;;;;;;0.81;43.84;100944.97;106420;1253;75529;-83
2024/01/12 11:50:00;;;;;;;;;;;;;;;0.71;42.82;100945.36;106194;1259;67333;-83
2024/01/12 11:52:40;;;;;;;;;;;;;;;0.69;43.29;100946.00;106455;1259;75314;-82
2024/01/12 11:55:20;;;;;;;;;;;;;;;0.60;42.61;100951.73;106553;1259;60511;-82
2024/01/12 11:58:00;;;;;;;;;;;;;;;0.43;41.96;100951.78;106462;1253;62395;-82
2024/01/12 12:00:40;;;;;;;;;;;;;;;0.25;42.04;100953.06;106198;1257;75779;-82
2024/01/12 12:03:20;;;;;;;;;;;;;;;0.15;41.89;100955.63;106265;1258;68368;-82
2024/01/12 12:06:00;;;;;;;;;;;;;;;-0.04;41.36;100955.30;106209;1261;73634;-82
2024/01/12 12:08:40;;;;;;;;;;;;;;;-0.13;41.57;100958.09;106314;1253;63820;-82
2024/01/12 12:11:20;;;;;;;;;;;;;;;-0.31;41.22;100953.04;106267;1254;60553;-81
2024/01/12 12:14:00;;;;;;;;;;;;;;;-0.30;41.26;100959.01;106265;1254;73960;-81
2024/01/12 12:16:40;;;;;;;;;;;;;;;-0.18;41.94;100962.85;106198;1254;69684;-82
2024/01/12 12:19:19;;;;;;;;;;;;;;;-0.18;42.05;100964.50;106278;1256;75008;-82
2024/01/12 12:22:02;;;;;;;;;;;;;;;-0.16;42.86;100965.54;106193;1255;61433;-81
2024/01/12 12:24:42;;;;;;;;;;;;;;;-0.17;42.33;100969.18;106203;1253;62097;-82
2024/01/12 12:27:22;;;;;;;;;;;;;;;-0.15;42.38;100967.88;106273;1257;75755;-82
2024/01/12 12:30:02;;;;;;;;;;;;;;;-0.19;42.77;100968.26;106281;1253;69797;-82
2024/01/12 12:32:47;;;;;;;;;;;;;;;-0.15;44.25;100969.14;106290;1254;73122;-82
2024/01/12 12:35:27;;;;;;;;;;;;;;;-0.04;44.33;100969.48;106457;1258;61015;-82
2024/01/12 12:38:07;;;;;;;;;;;;;;;-0.03;43.04;100969.33;106133;1256;61053;-82
2024/01/12 12:40:47;;;;;;;;;;;;;;;-0.10;44.51;100971.00;106331;1259;76022;-83
2024/01/12 12:43:27;;;;;;;;;;;;;;;-0.06;44.74;100972.08;106262;1257;69268;-82
2024/01/12 12:46:07;;;;;;;;;;;;;;;0.02;45.21;100972.13;106388;1254;73176;-82
2024/01/12 12:48:48;;;;;;;;;;;;;;;0.10;45.39;100977.55;106096;1253;202930;-81
2024/01/12 12:51:28;;;;;;;;;;;;;;;0.09;45.13;100978.27;106368;1259;61556;-81
2024/01/12 12:54:08;;;;;;;;;;;;;;;0.05;44.66;100981.77;106351;1254;75932;-81
2024/01/12 12:56:55;;;;;;;;;;;;;;;0.02;45.00;100983.61;106191;1253;70282;-82
2024/01/12 12:59:38;;;;;;;;;;;;;;;-0.01;45.09;100982.35;106367;1259;75336;-80
2024/01/12 13:02:18;;;;;;;;;;;;;;;-0.04;44.52;100983.32;106260;1254;60319;-82
2024/01/12 13:04:58;;;;;;;;;;;;;;;-0.10;44.92;100985.77;106262;1254;60551;-81
2024/01/12 13:07:38;;;;;;;;;;;;;;;-0.12;44.53;100984.64;106321;1256;76188;-81
2024/01/12 13:10:18;;;;;;;;;;;;;;;-0.08;44.38;100990.00;106456;1253;69681;-81
2024/01/12 13:12:59;;;;;;;;;;;;;;;-0.10;44.28;100991.96;106390;1259;73547;-81
2024/01/12 13:15:39;;;;;;;;;;;;;;;-0.21;44.34;100996.05;106305;1253;64101;-82
2024/01/12 13:18:19;;;;;;;;;;;;;;;-0.23;44.66;100986.58;106499;1259;61213;-82
2024/01/12 13:20:59;;;;;;;;;;;;;;;-0.28;44.39;100989.22;106350;1254;74740;-81
2024/01/12 13:23:39;;;;;;;;;;;;;;;-0.45;44.76;100987.14;106656;1259;69605;-81
2024/01/12 13:26:19;;;;;;;;;;;;;;;-0.44;44.43;100980.76;106346;1253;74761;-81
2024/01/12 13:29:00;;;;;;;;;;;;;;;-0.49;44.44;100980.89;106694;1253;63229;-81
2024/01/12 13:31:42;;;;;;;;;;;;;;;-0.59;44.02;100975.95;106307;1259;60417;-82
2024/01/12 13:34:22;;;;;;;;;;;;;;;-0.68;44.65;100979.51;106435;1260;75789;-82
2024/01/12 13:37:03;;;;;;;;;;;;;;;-0.85;44.87;100978.27;106469;1260;68700;-81
2024/01/12 13:39:42;;;;;;;;;;;;;;;-0.79;45.22;100977.55;106300;1254;74852;-81
2024/01/12 13:42:22;;;;;;;;;;;;;;;-0.82;45.06;100979.00;106309;1259;62657;-81
2024/01/12 13:45:02;;;;;;;;;;;;;;;-0.80;45.50;100980.22;106444;1254;62444;-82
2024/01/12 13:47:42;;;;;;;;;;;;;;;-0.75;45.52;100982.46;106175;1259;76159;-82
2024/01/12 13:50:22;;;;;;;;;;;;;;;-0.77;45.70;100988.59;106232;1257;70822;-81
2024/01/12 13:53:03;;;;;;;;;;;;;;;-0.76;45.67;100992.52;106207;1259;71357;-82
2024/01/12 13:55:43;;;;;;;;;;;;;;;-0.95;46.10;100996.30;106271;1258;62991;-80
2024/01/12 13:58:24;;;;;;;;;;;;;;;-0.94;46.01;100998.36;106208;1259;60406;-80
2024/01/12 14:01:04;;;;;;;;;;;;;;;-0.90;45.97;101001.46;106295;1260;74816;-79
2024/01/12 14:03:44;;;;;;;;;;;;;;;-0.97;45.63;100997.46;106193;1257;70461;-81
2024/01/12 14:06:25;;;;;;;;;;;;;;;-1.02;44.82;100999.31;106842;1260;73987;-80
2024/01/12 14:09:05;;;;;;;;;;;;;;;-1.05;44.98;100994.58;106786;1257;61205;-80
2024/01/12 14:11:46;;;;;;;;;;;;;;;-0.95;45.14;100997.86;106251;1254;60457;-80
2024/01/12 14:14:26;;;;;;;;;;;;;;;-0.91;45.28;101002.11;106305;1258;76125;-80
2024/01/12 14:17:06;;;;;;;;;;;;;;;-0.97;45.53;100998.59;106330;1259;69327;-80
2024/01/12 14:19:45;;;;;;;;;;;;;;;-0.98;45.54;101001.21;106121;1258;72809;-80
2024/01/12 14:22:26;;;;;;;;;;;;;;;-1.06;45.65;101002.40;106279;1254;62189;-80
2024/01/12 14:25:06;;;;;;;;;;;;;;;-1.11;45.66;101007.55;106225;1259;62207;-80
2024/01/12 14:27:47;;;;;;;;;;;;;;;-1.24;45.76;101008.02;106160;1259;74986;-80
2024/01/12 14:30:26;;;;;;;;;;;;;;;-1.37;45.92;101014.84;106042;1259;69098;-81
2024/01/12 14:33:07;;;;;;;;;;;;;;;-1.45;45.86;101013.98;106246;1254;74859;-81
2024/01/12 14:35:48;;;;;;;;;;;;;;;-1.53;45.61;101013.56;106132;1258;61870;-80
2024/01/12 14:38:28;;;;;;;;;;;;;;;-1.57;45.41;101015.77;106237;1256;61930;-79
2024/01/12 14:41:08;;;;;;;;;;;;;;;-1.68;45.55;101018.53;106182;1254;76460;-80
2024/01/12 14:43:47;;;;;;;;;;;;;;;-1.69;45.54;101018.68;106324;1258;70836;-80
2024/01/12 14:46:27;;;;;;;;;;;;;;;-1.68;45.74;101024.56;106203;1253;74679;-80
2024/01/12 14:49:07;;;;;;;;;;;;;;;-1.70;45.60;101025.56;106161;1259;63572;-80
2024/01/12 14:51:48;;;;;;;;;;;;;;;-1.74;45.49;101025.84;106307;1254;60447;-80
2024/01/12 14:54:28;;;;;;;;;;;;;;;-1.77;45.42;101026.54;106197;1254;73848;-79
2024/01/12 14:57:08;;;;;;;;;;;;;;;-1.88;45.49;101024.28;106195;1254;69615;-79
2024/01/12 14:59:48;;;;;;;;;;;;;;;-2.01;45.41;101024.55;106288;1259;74683;-79
2024/01/12 15:02:27;;;;;;;;;;;;;;;-2.11;45.59;101023.01;106211;1258;61879;-79
2024/01/12 15:05:09;;;;;;;;;;;;;;;-2.19;45.66;101025.21;106073;1260;60344;-79
2024/01/12 15:07:48;;;;;;;;;;;;;;;-2.26;45.58;101025.04;106350;1259;75927;-79
2024/01/12 15:10:28;;;;;;;;;;;;;;;-2.34;45.80;101023.34;106511;1259;70107;-79
2024/01/12 15:13:08;;;;;;;;;;;;;;;-2.43;45.85;101024.93;106172;1260;73910;-80
2024/01/12 15:15:48;;;;;;;;;;;;;;;-2.48;46.00;101028.16;106063;1260;62001;-80
2024/01/12 15:18:27;;;;;;;;;;;;;;;-2.53;45.65;101030.23;106219;1254;61749;-79
2024/01/12 15:21:08;;;;;;;;;;;;;;;-2.61;45.60;101032.16;106376;1259;74148;-79
2024/01/12 15:23:48;;;;;;;;;;;;;;;-2.65;45.69;101031.92;106260;1254;71052;-80
2024/01/12 15:26:28;;;;;;;;;;;;;;;-2.71;45.63;101029.83;106145;1259;73172;-80
2024/01/12 15:29:07;;;;;;;;;;;;;;;-2.79;45.72;101030.75;106343;1255;61437;-79
2024/01/12 15:31:48;;;;;;;;;;;;;;;-2.83;45.48;101029.34;106202;1254;61577;-85
2024/01/12 15:34:28;;;;;;;;;;;;;;;-2.89;45.65;101024.48;106562;1260;74740;-86
2024/01/12 15:37:08;;;;;;;;;;;;;;;-3.06;45.81;101026.44;106381;1258;70554;-86
2024/01/12 15:39:48;;;;;;;;;;;;;;;-3.12;45.96;101023.77;106333;1254;74727;-85
2024/01/12 15:42:28;;;;;;;;;;;;;;;-3.10;45.79;101021.54;106552;1258;62982;-85
2024/01/12 15:45:23;;;;;;;;;;;;;;;-3.09;45.71;101024.61;106368;1254;61970;-85
2024/01/12 15:48:03;;;;;;;;;;;;;;;-3.11;45.82;101025.27;106508;1259;75849;-87
2024/01/12 15:50:43;;;;;;;;;;;;;;;-3.15;45.66;101022.64;106245;1260;69086;-85
2024/01/12 15:53:23;;;;;;;;;;;;;;;-3.15;45.45;101023.23;106369;1260;74760;-87
2024/01/12 15:56:03;;;;;;;;;;;;;;;-3.11;45.33;101025.77;106402;1256;62827;-88
2024/01/12 15:58:43;;;;;;;;;;;;;;;-3.14;45.39;101025.31;106722;1255;62043;-88
2024/01/12 16:01:26;;;;;;;;;;;;;;;-3.25;45.46;101029.88;106370;1254;76612;-86
2024/01/12 16:04:06;;;;;;;;;;;;;;;-3.22;45.40;101033.99;106378;1253;70349;-87
2024/01/12 16:06:52;;;;;;;;;;;;;;;-3.34;45.34;101038.10;106425;1257;74604;-87
2024/01/12 16:09:32;;;;;;;;;;;;;;;-3.34;45.24;101035.36;106559;1260;62907;-89
2024/01/12 16:12:13;;;;;;;;;;;;;;;-3.38;45.32;101032.34;106380;1256;61436;-85
2024/01/12 16:14:53;;;;;;;;;;;;;;;-3.45;45.46;101033.41;106387;1254;75195;-86
2024/01/12 16:17:33;;;;;;;;;;;;;;;-3.53;45.66;101037.14;106894;1254;69982;-87
2024/01/12 16:20:13;;;;;;;;;;;;;;;-3.49;45.65;101034.92;106347;1259;74867;-87
2024/01/12 16:22:53;;;;;;;;;;;;;;;-3.53;45.51;101037.85;106367;1257;63128;-87
2024/01/12 16:25:33;;;;;;;;;;;;;;;-3.57;45.63;101037.26;106281;1259;62140;-86
2024/01/12 16:28:13;;;;;;;;;;;;;;;-3.61;45.58;101034.13;106587;1260;75103;-88
2024/01/12 16:30:53;;;;;;;;;;;;;;;-3.68;45.73;101033.68;106394;1258;69941;-88
2024/01/12 16:33:32;;;;;;;;;;;;;;;-3.82;45.84;101026.85;106319;1259;73771;-88
2024/01/12 16:36:12;;;;;;;;;;;;;;;-3.88;45.98;101023.84;106219;1259;61520;-88
2024/01/12 16:38:52;;;;;;;;;;;;;;;-3.87;45.88;101025.13;106812;1260;61113;-87
2024/01/12 16:41:32;;;;;;;;;;;;;;;-3.93;45.86;101020.80;106326;1260;76968;-87
2024/01/12 16:44:12;;;;;;;;;;;;;;;-3.94;45.86;101021.64;106386;1259;68972;-87
2024/01/12 16:46:52;;;;;;;;;;;;;;;-3.99;45.88;101020.08;106463;1256;73484;-87
2024/01/12 16:49:36;;;;;;;;;;;;;;;-3.99;45.81;101021.85;106524;1254;62426;-87
2024/01/12 16:52:16;;;;;;;;;;;;;;;-4.03;45.81;101022.96;106505;1256;61189;-87
2024/01/12 16:54:56;;;;;;;;;;;;;;;-4.02;45.72;101026.27;106919;1256;76801;-88
2024/01/12 16:57:36;;;;;;;;;;;;;;;-4.10;45.77;101021.10;107229;1258;69563;-88
2024/01/12 17:00:17;;;;;;;;;;;;;;;-4.16;45.79;101017.67;106658;1255;73589;-90
2024/01/12 17:02:56;;;;;;;;;;;;;;;-4.21;45.68;101013.75;106515;1260;61928;-90
2024/01/12 17:05:36;;;;;;;;;;;;;;;-4.29;45.88;101013.36;106493;1254;63183;-88
2024/01/12 17:08:16;;;;;;;;;;;;;;;-4.52;46.13;101014.96;106514;1257;75031;-89
2024/01/12 17:10:56;;;;;;;;;;;;;;;-4.62;46.15;101021.20;106889;1254;69384;-88
2024/01/12 17:13:36;;;;;;;;;;;;;;;-4.64;46.26;101021.86;106546;1254;72994;-87
2024/01/12 17:16:15;;;;;;;;;;;;;;;-4.66;46.20;101022.27;106310;1256;61412;-87
2024/01/12 17:18:55;;;;;;;;;;;;;;;-4.67;45.93;101017.39;106384;1254;61757;-88
2024/01/12 17:21:35;;;;;;;;;;;;;;;-4.66;45.89;101023.27;106402;1260;75874;-90
2024/01/12 17:24:15;;;;;;;;;;;;;;;-4.66;45.75;101024.02;106610;1254;69532;-87
2024/01/12 17:26:55;;;;;;;;;;;;;;;-4.64;45.51;101025.94;106424;1257;73416;-89
2024/01/12 17:29:35;;;;;;;;;;;;;;;-4.73;45.63;101024.63;106249;1254;62762;-88
2024/01/12 17:32:15;;;;;;;;;;;;;;;-4.73;45.56;101026.22;106337;1258;61455;-87
2024/01/12 17:34:55;;;;;;;;;;;;;;;-4.75;45.59;101024.92;106376;1260;75832;-87
2024/01/12 17:37:35;;;;;;;;;;;;;;;-4.82;45.58;101023.78;106573;1257;71058;-87
2024/01/12 17:40:15;;;;;;;;;;;;;;;-4.83;45.73;101028.11;106395;1257;75309;-87
2024/01/12 17:42:55;;;;;;;;;;;;;;;-4.76;45.68;101030.05;106449;1254;61850;-88
2024/01/12 17:45:34;;;;;;;;;;;;;;;-4.72;45.47;101028.73;106440;1254;61339;-88
2024/01/12 17:48:14;;;;;;;;;;;;;;;-4.88;45.67;101036.67;106611;1254;74873;-86
2024/01/12 17:50:54;;;;;;;;;;;;;;;-4.85;45.64;101036.75;106480;1255;70521;-87
2024/01/12 17:53:34;;;;;;;;;;;;;;;-4.90;45.64;101037.77;106579;1257;75464;-88
2024/01/12 17:56:14;;;;;;;;;;;;;;;-4.93;45.58;101039.16;106481;1259;61362;-88
2024/01/12 17:58:55;;;;;;;;;;;;;;;-4.93;45.53;101038.66;106355;1259;61234;-88
2024/01/12 18:01:35;;;;;;;;;;;;;;;-5.03;45.31;101034.58;106631;1257;79522;-87
2024/01/12 18:04:15;;;;;;;;;;;;;;;-5.09;45.37;101031.99;106720;1259;69890;-88
2024/01/12 18:06:55;;;;;;;;;;;;;;;-5.23;45.15;101033.39;106367;1256;74639;-88
2024/01/12 18:09:35;;;;;;;;;;;;;;;-5.31;45.19;101032.20;106569;1258;62008;-89
2024/01/12 18:12:14;;;;;;;;;;;;;;;-5.32;45.00;101027.10;106580;1254;61771;-87
2024/01/12 18:14:54;;;;;;;;;;;;;;;-5.32;44.92;101024.50;106826;1256;75855;-88
2024/01/12 18:17:34;;;;;;;;;;;;;;;-5.37;44.86;101023.52;106406;1257;69638;-88
2024/01/12 18:20:14;;;;;;;;;;;;;;;-5.43;44.64;101021.00;106584;1257;72318;-88
2024/01/12 18:22:54;;;;;;;;;;;;;;;-5.54;44.62;101014.04;106433;1253;62953;-87
2024/01/12 18:25:34;;;;;;;;;;;;;;;-5.67;44.82;101013.20;106535;1255;61371;-88
2024/01/12 18:28:14;;;;;;;;;;;;;;;-5.82;44.65;101011.52;106520;1254;75632;-87
2024/01/12 18:30:54;;;;;;;;;;;;;;;-6.02;44.91;101009.02;106665;1259;71287;-88
2024/01/12 18:33:34;;;;;;;;;;;;;;;-6.37;45.43;101011.50;106526;1260;70475;-88
2024/01/12 18:36:14;;;;;;;;;;;;;;;-6.26;45.42;101009.02;106818;1257;61826;-88
2024/01/12 18:38:54;;;;;;;;;;;;;;;-6.39;45.61;101011.25;106769;1254;61419;-88
2024/01/12 18:41:34;;;;;;;;;;;;;;;-6.46;45.67;101011.70;106517;1259;76866;-87
2024/01/12 18:44:13;;;;;;;;;;;;;;;-6.69;45.94;101008.89;106527;1257;68950;-88
2024/01/12 18:46:53;;;;;;;;;;;;;;;-6.61;45.60;101003.80;107027;1256;73889;-87
2024/01/12 18:49:33;;;;;;;;;;;;;;;-6.55;45.53;101006.92;106554;1259;61352;-88
2024/01/12 18:52:14;;;;;;;;;;;;;;;-6.42;45.25;101008.86;106531;1256;61234;-88
2024/01/12 18:54:54;;;;;;;;;;;;;;;-6.46;45.04;101007.98;106491;1260;76987;-89
2024/01/12 18:57:28;;;;;;;;;;;;;;;-6.47;44.88;101013.61;107333;1254;71073;-88
2024/01/12 19:00:01;;;;;;;;;;;;;;;-6.57;44.62;101011.19;106587;1254;74502;-87
2024/01/12 19:02:41;;;;;;;;;;;;;;;-6.66;44.57;101012.90;106554;1257;61211;-88
2024/01/12 19:05:21;;;;;;;;;;;;;;;-6.72;44.51;101010.81;106561;1254;61298;-87
2024/01/12 19:07:58;;;;;;;;;;;;;;;-6.81;44.41;101010.98;106677;1257;75427;-89
2024/01/12 19:10:33;;;;;;;;;;;;;;;-6.89;44.44;101013.05;106548;1254;70603;-87
2024/01/12 19:13:12;;;;;;;;;;;;;;;-6.96;44.32;101013.14;106606;1259;72775;-88
2024/01/12 19:15:52;;;;;;;;;;;;;;;-7.11;44.67;101014.60;106528;1254;61518;-87
2024/01/12 19:18:26;;;;;;;;;;;;;;;-7.20;44.55;101013.04;106730;1260;61232;-87
2024/01/12 19:21:00;;;;;;;;;;;;;;;-7.42;45.10;101007.34;106376;1254;74950;-86
2024/01/12 19:23:40;;;;;;;;;;;;;;;-7.50;44.91;101009.56;106601;1254;70745;-89
2024/01/12 19:26:20;;;;;;;;;;;;;;;-7.57;45.19;101010.25;106268;1257;73675;-88
2024/01/12 19:28:54;;;;;;;;;;;;;;;-7.58;45.27;101018.96;106428;1254;61287;-88
2024/01/12 19:31:28;;;;;;;;;;;;;;;-7.58;44.99;101015.78;106777;1259;61864;-86
2024/01/12 19:34:09;;;;;;;;;;;;;;;-7.65;45.00;101018.08;107047;1254;76212;-88
2024/01/12 19:36:49;;;;;;;;;;;;;;;-7.62;44.98;101015.66;106681;1258;70972;-86
2024/01/12 19:39:23;;;;;;;;;;;;;;;-7.69;44.73;101018.42;106474;1254;74793;-88
2024/01/12 19:41:57;;;;;;;;;;;;;;;-7.74;44.55;101012.09;106806;1254;62841;-87
2024/01/12 19:44:37;;;;;;;;;;;;;;;-7.74;44.30;101009.44;106467;1254;62114;-87
2024/01/12 19:47:17;;;;;;;;;;;;;;;-7.75;44.47;101006.84;106419;1260;74940;-86
2024/01/12 19:49:51;;;;;;;;;;;;;;;-7.81;44.52;101004.70;106366;1260;69757;-88
2024/01/12 19:52:25;;;;;;;;;;;;;;;-7.83;44.44;100999.11;106427;1253;73666;-88
2024/01/12 19:55:05;;;;;;;;;;;;;;;-7.87;44.45;100992.89;106883;1257;63237;-86
2024/01/12 19:57:44;;;;;;;;;;;;;;;-7.90;44.45;100992.85;106479;1254;61321;-88
2024/01/12 20:00:18;;;;;;;;;;;;;;;-7.93;44.24;100989.96;106687;1254;75827;-88
2024/01/12 20:02:46;;;;;;;;;;;;;;;-7.91;44.46;100990.70;106612;1253;70251;-87
2024/01/12 20:05:26;;;;;;;;;;;;;;;-7.94;44.55;100990.24;106732;1254;73753;-88
2024/01/12 20:08:06;;;;;;;;;;;;;;;-7.95;44.41;100987.88;106632;1255;61683;-88
2024/01/12 20:10:40;;;;;;;;;;;;;;;-7.96;44.17;100984.29;106727;1254;61267;-87
2024/01/12 20:13:13;;;;;;;;;;;;;;;-7.98;44.28;100983.34;106669;1254;75702;-88
2024/01/12 20:15:53;;;;;;;;;;;;;;;-8.02;44.50;100989.20;106802;1254;69807;-87
2024/01/12 20:18:33;;;;;;;;;;;;;;;-8.09;44.60;100991.80;106765;1254;72609;-87
2024/01/12 20:21:10;;;;;;;;;;;;;;;-8.12;44.77;100984.67;106673;1256;62817;-87
2024/01/12 20:23:44;;;;;;;;;;;;;;;-8.14;44.56;100981.39;106622;1254;61339;-87
2024/01/12 20:26:24;;;;;;;;;;;;;;;-8.20;44.51;100978.94;106832;1253;75691;-86
2024/01/12 20:29:04;;;;;;;;;;;;;;;-8.22;44.68;100974.48;106541;1254;71121;-88
2024/01/12 20:31:37;;;;;;;;;;;;;;;-8.24;45.04;100974.52;106474;1254;74983;-86
2024/01/12 20:34:11;;;;;;;;;;;;;;;-8.25;45.26;100971.42;106409;1253;61338;-87
2024/01/12 20:36:51;;;;;;;;;;;;;;;-8.24;45.17;100971.29;106947;1254;61423;-89
2024/01/12 20:39:19;;;;;;;;;;;;;;;-8.18;45.08;100967.88;106470;1257;75208;-88
2024/01/12 20:41:52;;;;;;;;;;;;;;;-8.10;45.25;100978.19;106326;1260;69647;-86
2024/01/12 20:44:26;;;;;;;;;;;;;;;-8.06;45.20;100970.49;106405;1257;74609;-85
2024/01/12 20:47:06;;;;;;;;;;;;;;;-8.05;44.82;100969.67;106656;1254;61935;-88
2024/01/12 20:49:46;;;;;;;;;;;;;;;-8.06;45.19;100967.48;106460;1254;61232;-86
2024/01/12 20:52:20;;;;;;;;;;;;;;;-8.10;45.30;100968.59;106329;1254;74915;-87
2024/01/12 20:55:00;;;;;;;;;;;;;;;-8.12;45.36;100968.42;106302;1258;69639;-87
2024/01/12 20:57:41;;;;;;;;;;;;;;;-8.17;45.39;100961.98;106863;1257;72747;-86
2024/01/12 21:00:21;;;;;;;;;;;;;;;-8.23;45.57;100961.15;106198;1256;61342;-87
2024/01/12 21:02:54;;;;;;;;;;;;;;;-8.29;45.61;100960.66;106212;1260;61214;-87
2024/01/12 21:05:28;;;;;;;;;;;;;;;-8.36;45.62;100958.63;106445;1254;72636;-89
2024/01/12 21:08:08;;;;;;;;;;;;;;;-8.21;45.41;100960.80;106683;1259;68762;-79
2024/01/12 21:10:48;;;;;;;;;;;;;;;-8.20;45.13;100961.95;106759;1254;73117;-79
2024/01/12 21:13:22;;;;;;;;;;;;;;;-8.23;45.07;100967.02;106793;1254;62931;-80
2024/01/12 21:15:55;;;;;;;;;;;;;;;-8.24;45.52;100961.54;106459;1253;61283;-81
2024/01/12 21:18:35;;;;;;;;;;;;;;;-8.24;45.55;100959.61;106373;1259;72390;-80
2024/01/12 21:21:16;;;;;;;;;;;;;;;-8.26;45.60;100962.52;106378;1254;68696;-82
2024/01/12 21:23:49;;;;;;;;;;;;;;;-8.27;45.76;100959.88;106448;1256;72675;-81